Harrison, West Virginia
Current Conditions -  °F | °C
As of 5:54 PM on Monday 22 Dec 2014 (Local Time) from KCRW Reporting Station
Broken Clouds Broken Clouds  
Wind Chill:   Ceiling: 20000
Heat Index:   Visibility: 10mi
Dew Point:   Wind: 9mph
Humidity: 66%   Direction: 130°SE
Pressure: 29.89"   Gusts: NA
Location:  38.5676°N, 80.9762°W
Report Text: KCRW 222254Z 13008KT 10SM FEW038 SCT120 BKN200 09/03 A2989 RMK AO2 SLP124 T00940033
Loading
Personal Weather Stations






























Interactive Weather Map New forecast layout! Learn more

10-Day Weather Forecast

Advertisements
Track Severe Weather on mobile